Latest Weather Observations for Brisbane Airport

IDQ60801

Issued at 8:02 pm EST Sunday 26 February 2017 (issued every 30 minutes, with the page automatically refreshed every 10 minutes)

About weather observations | Map of weather stations | Latest weather observations for QLD | Other Formats
Station Details ID: 040842 Name: BRISBANE AERO Lat: -27.39 Lon: 153.13 Height: 4.51 m
Data from the previous 72 hours. | See also: Recent months at Brisbane Airport
Date/Time
EST
Temp
°C
App
Temp
°C
Dew
Point
°C
Rel
Hum
%
Delta-T
°C
Wind Press
QNH
hPa
Press
MSL
hPa
Rain since
9am
mm
Dir  Spd
km/h
Gust
km/h
Spd
kts
Gust
kts
26/07:30pm 24.9 23.8 17.7 64 4.5 SE 20 33 11 18 1016.5 1016.5 0.0
26/07:00pm 25.1 24.7 18.1 65 4.4 SE 17 26 9 14 1016.1 1016.1 0.0
26/06:30pm 25.3 24.1 17.1 60 5.1 SE 19 35 10 19 1015.5 1015.5 0.0
26/06:00pm 25.8 24.0 16.9 58 5.5 SE 22 39 12 21 1015.3 1015.3 0.0
26/05:30pm 26.5 24.8 17.2 56 5.8 SE 22 39 12 21 1015.0 1015.0 0.0
26/05:00pm 26.6 23.7 17.1 56 5.9 SE 28 46 15 25 1014.7 1014.7 0.0
26/04:31pm 26.8 23.1 15.1 48 7.1 ESE 28 46 15 25 1014.5 1014.5 0.0
26/04:30pm 26.7 23.0 14.9 48 7.1 ESE 28 41 15 22 1014.5 1014.5 0.0
26/04:00pm 26.3 24.6 18.1 60 5.2 ESE 24 35 13 19 1014.5 1014.5 0.0
26/03:30pm 26.6 24.6 17.3 56 5.8 ESE 24 35 13 19 1014.4 1014.4 0.0
26/03:00pm 27.2 25.1 16.2 51 6.8 ESE 22 35 12 19 1014.3 1014.3 0.0
26/02:30pm 27.8 25.2 15.9 48 7.3 ESE 24 37 13 20 1014.4 1014.4 0.0
26/02:00pm 27.2 25.0 16.9 53 6.4 ESE 24 41 13 22 1014.4 1014.4 0.0
26/01:30pm 28.0 25.7 17.7 53 6.5 ESE 26 41 14 22 1014.8 1014.8 0.0
26/01:00pm 28.5 26.9 17.4 51 7.0 ESE 22 37 12 20 1015.1 1015.1 0.0
26/12:30pm 29.0 26.6 15.3 43 8.4 ESE 22 33 12 18 1015.4 1015.4 0.0
26/12:00pm 28.2 25.4 15.4 45 7.8 ESE 24 37 13 20 1015.6 1015.6 0.0
26/11:30am 28.6 26.7 16.7 48 7.4 ESE 22 39 12 21 1015.8 1015.8 0.0
26/11:00am 28.1 26.6 16.7 50 7.1 ESE 20 37 11 20 1015.8 1015.8 0.0
26/10:30am 26.8 26.4 17.2 55 6.0 ESE 15 28 8 15 1016.3 1016.3 0.0
26/10:00am 26.4 25.4 17.5 58 5.6 SE 19 30 10 16 1016.3 1016.3 0.0
26/09:30am 25.8 25.5 18.2 63 4.8 SE 17 26 9 14 1016.3 1016.3 0.0
26/09:00am 25.7 25.5 17.7 61 5.0 SE 15 22 8 12 1016.0 1016.0 0.0
26/08:30am 25.8 25.8 18.0 62 4.9 SE 15 24 8 13 1016.0 1016.0 0.0
26/08:00am 24.8 24.9 17.4 63 4.6 SSE 13 24 7 13 1015.7 1015.7 0.0
26/07:30am 23.7 23.6 16.9 65 4.2 S 13 20 7 11 1015.4 1015.4 0.0
26/07:00am 22.4 21.5 16.8 70 3.4 SSW 17 22 9 12 1015.6 1015.6 0.0
26/06:30am 21.9 21.4 16.8 73 3.1 SSW 15 22 8 12 1015.2 1015.2 0.0
26/06:00am 20.4 20.2 16.8 80 2.2 SSW 13 17 7 9 1014.7 1014.7 0.0
26/05:30am 20.3 20.4 16.5 79 2.3 SSW 11 13 6 7 1014.5 1014.5 0.0
26/05:00am 20.0 19.6 16.2 79 2.3 SSW 13 15 7 8 1014.1 1014.1 0.0
26/04:30am 20.3 20.2 15.9 76 2.6 SSW 11 15 6 8 1013.8 1013.8 0.0
26/04:00am 20.7 20.1 15.7 73 3.0 SSW 13 17 7 9 1013.7 1013.7 0.0
26/03:30am 20.6 20.0 15.7 73 2.9 SSW 13 17 7 9 1013.7 1013.7 0.0
26/03:00am 22.0 21.4 15.7 67 3.8 SSW 13 19 7 10 1013.8 1013.8 0.0
26/02:30am 22.9 22.4 15.8 64 4.3 S 13 19 7 10 1013.9 1013.9 0.0
26/02:00am 22.9 21.9 15.6 63 4.4 S 15 22 8 12 1013.8 1013.8 0.0
26/01:30am 23.0 22.6 16.1 65 4.2 S 13 19 7 10 1014.2 1014.2 0.0
26/01:00am 23.0 22.6 16.2 65 4.1 S 13 19 7 10 1014.5 1014.5 0.0
26/12:30am 23.0 22.6 16.2 65 4.1 SSW 13 17 7 9 1015.0 1015.0 0.0
26/12:00am 23.2 22.8 16.1 64 4.3 S 13 17 7 9 1015.4 1015.4 0.0
 
Date/Time
EST
Temp
°C
App
Temp
°C
Dew
Point
°C
Rel
Hum
%
Delta-T
°C
Wind Press
QNH
hPa
Press
MSL
hPa
Rain since
9am
mm
Dir  Spd
km/h
Gust
km/h
Spd
kts
Gust
kts
25/11:30pm 23.1 22.7 16.2 65 4.2 S 13 17 7 9 1015.9 1015.9 0.0
25/11:00pm 23.3 22.8 16.0 63 4.4 S 13 19 7 10 1016.1 1016.1 0.0
25/10:30pm 23.5 23.1 16.1 63 4.5 S 13 19 7 10 1016.3 1016.3 0.0
25/10:00pm 23.6 23.2 16.2 63 4.5 S 13 20 7 11 1016.2 1016.2 0.0
25/09:30pm 24.0 23.0 16.5 63 4.6 SE 17 30 9 16 1016.0 1016.0 0.0
25/09:00pm 24.1 23.9 16.8 63 4.5 SSE 13 22 7 12 1015.7 1015.7 0.0
25/08:30pm 24.6 23.2 17.0 62 4.7 SE 20 35 11 19 1015.6 1015.6 0.0
25/08:00pm 24.8 23.2 17.4 63 4.6 SE 22 37 12 20 1015.1 1015.1 0.0
25/07:30pm 25.0 23.1 17.6 63 4.6 SE 24 39 13 21 1014.8 1014.8 0.0
25/07:00pm 25.2 23.6 17.5 62 4.8 SE 22 35 12 19 1014.6 1014.6 0.0
25/06:30pm 25.4 23.5 17.6 62 4.9 SE 24 41 13 22 1014.2 1014.2 0.0
25/06:00pm 25.8 23.8 17.3 59 5.3 ESE 24 41 13 22 1014.0 1014.0 0.0
25/05:30pm 26.5 25.0 17.6 58 5.6 ESE 22 37 12 20 1013.7 1013.7 0.0
25/05:00pm 26.8 25.2 18.3 59 5.4 ESE 24 41 13 22 1013.3 1013.3 0.0
25/04:30pm 27.3 25.6 18.0 56 5.9 ESE 24 37 13 20 1013.4 1013.4 0.0
25/04:00pm 27.5 25.8 18.2 57 5.9 ESE 24 37 13 20 1013.4 1013.4 0.0
25/03:30pm 28.0 26.1 19.4 59 5.6 ESE 28 41 15 22 1013.3 1013.3 0.0
25/03:00pm 28.4 26.7 18.2 54 6.5 ESE 24 37 13 20 1013.5 1013.5 0.0
25/02:30pm 28.9 27.7 17.5 50 7.2 ESE 20 33 11 18 1013.7 1013.7 0.0
25/02:00pm 29.7 28.1 16.4 44 8.3 ESE 20 33 11 18 1013.9 1013.9 0.0
25/01:30pm 29.5 27.5 15.5 42 8.6 ESE 20 32 11 17 1014.3 1014.3 0.0
25/01:00pm 29.3 27.4 15.7 43 8.4 ESE 20 35 11 19 1014.7 1014.7 0.0
25/12:30pm 29.5 27.4 16.1 44 8.3 ESE 22 33 12 18 1015.1 1015.1 0.0
25/12:00pm 29.3 27.2 16.3 45 8.1 ESE 22 33 12 18 1015.4 1015.4 0.0
25/11:30am 28.8 26.2 14.8 42 8.5 E 22 33 12 18 1015.7 1015.7 0.0
25/11:00am 28.6 26.7 15.8 45 7.9 ESE 20 30 11 16 1016.0 1016.0 0.0
25/10:30am 29.0 27.8 16.1 45 8.0 SE 17 28 9 15 1016.3 1016.3 0.0
25/10:00am 28.8 28.3 15.8 45 8.0 SE 13 24 7 13 1016.7 1016.7 0.0
25/09:30am 27.1 26.4 15.4 48 7.1 SE 13 26 7 14 1016.8 1016.8 0.0
25/09:00am 26.7 26.1 15.7 51 6.7 SSE 13 20 7 11 1016.9 1016.9 0.0
25/08:30am 26.2 24.9 15.7 52 6.4 S 17 26 9 14 1017.0 1017.0 0.0
25/08:00am 25.1 23.3 15.5 55 5.8 SSW 19 26 10 14 1016.9 1016.9 0.0
25/07:30am 24.0 23.2 16.1 61 4.8 S 15 26 8 14 1016.8 1016.8 0.0
25/07:00am 22.6 21.8 17.2 71 3.3 SSW 17 20 9 11 1016.7 1016.7 0.0
25/06:30am 20.8 20.5 17.4 81 2.1 SSW 15 19 8 10 1016.5 1016.5 0.0
25/06:00am 19.9 20.5 16.9 83 1.8 SSW 9 15 5 8 1016.3 1016.3 0.0
25/05:30am 20.4 20.7 16.9 80 2.1 SSW 11 13 6 7 1016.1 1016.1 0.0
25/05:00am 21.2 21.5 17.1 77 2.5 S 11 15 6 8 1015.9 1015.9 0.0
25/04:30am 21.2 21.5 17.1 77 2.5 S 11 15 6 8 1015.8 1015.8 0.0
25/04:00am 21.5 21.9 17.3 77 2.6 S 11 17 6 9 1015.6 1015.6 0.0
25/03:30am 22.0 22.4 17.3 74 2.9 S 11 17 6 9 1015.3 1015.3 0.0
25/03:00am 22.0 22.7 17.1 74 3.0 S 9 15 5 8 1015.2 1015.2 0.0
25/02:30am 22.0 22.4 17.3 74 2.9 S 11 15 6 8 1015.3 1015.3 0.0
25/02:00am 22.0 22.6 17.6 76 2.7 S 11 15 6 8 1015.4 1015.4 0.0
25/01:30am 22.1 23.0 17.6 75 2.8 S 9 15 5 8 1015.5 1015.5 0.0
25/01:00am 22.9 24.3 17.7 72 3.2 SSE 7 11 4 6 1015.6 1015.6 0.0
25/12:30am 23.5 24.6 17.9 71 3.5 S 9 11 5 6 1015.9 1015.9 0.0
25/12:00am 24.4 25.4 17.7 66 4.2 ESE 9 15 5 8 1016.1 1016.1 0.0
 
Date/Time
EST
Temp
°C
App
Temp
°C
Dew
Point
°C
Rel
Hum
%
Delta-T
°C
Wind Press
QNH
hPa
Press
MSL
hPa
Rain since
9am
mm
Dir  Spd
km/h
Gust
km/h
Spd
kts
Gust
kts
24/11:30pm 24.4 25.0 17.7 66 4.2 ESE 11 17 6 9 1016.3 1016.3 0.0
24/11:00pm 24.4 25.4 17.7 66 4.2 ESE 9 13 5 7 1016.5 1016.5 0.0
24/10:30pm 24.5 25.0 17.4 64 4.4 ESE 11 17 6 9 1016.7 1016.7 0.0
24/10:00pm 24.8 25.1 17.8 65 4.4 ESE 13 20 7 11 1016.8 1016.8 0.0
24/09:30pm 25.1 25.4 17.8 64 4.6 ESE 13 24 7 13 1017.0 1017.0 0.0
24/09:00pm 25.2 25.5 18.0 64 4.5 E 13 22 7 12 1017.2 1017.2 0.0
24/08:30pm 25.2 25.4 18.6 67 4.2 ESE 15 26 8 14 1017.2 1017.2 0.0
24/08:00pm 25.2 26.0 19.1 69 3.9 E 13 17 7 9 1017.0 1017.0 0.0
24/07:30pm 25.2 25.2 18.2 65 4.4 ESE 15 26 8 14 1017.0 1017.0 0.0
24/07:00pm 25.2 25.4 18.6 67 4.2 ESE 15 22 8 12 1016.6 1016.6 0.0
24/06:30pm 25.4 25.4 18.1 64 4.6 E 15 28 8 15 1016.5 1016.5 0.0
24/06:00pm 26.0 26.0 17.3 58 5.4 ESE 13 20 7 11 1016.2 1016.2 0.0
24/05:30pm 26.7 26.3 17.1 55 6.0 E 15 24 8 13 1015.9 1015.9 0.0
24/05:00pm 27.4 26.6 17.0 53 6.5 E 17 26 9 14 1015.8 1015.8 0.0
24/04:30pm 27.8 26.2 16.1 49 7.2 SE 19 30 10 16 1015.8 1015.8 0.0
24/04:00pm 28.2 27.0 16.2 48 7.4 E 17 30 9 16 1015.7 1015.7 0.0
24/03:30pm 28.4 27.1 15.9 46 7.7 E 17 28 9 15 1015.6 1015.6 0.0
24/03:00pm 28.8 27.3 16.4 47 7.7 E 19 30 10 16 1015.7 1015.7 0.0
24/02:30pm 29.3 28.5 17.2 48 7.6 E 17 32 9 17 1016.0 1016.0 0.0
24/02:00pm 28.3 26.9 16.6 49 7.3 ESE 19 28 10 15 1016.2 1016.2 0.0
24/01:30pm 28.6 27.3 16.7 48 7.4 ESE 19 30 10 16 1016.5 1016.5 0.0
24/01:00pm 29.8 28.5 17.3 47 7.9 ESE 20 32 11 17 1016.8 1016.8 0.0
24/12:30pm 29.3 28.7 16.7 46 7.9 ESE 15 26 8 14 1017.1 1017.1 0.0
24/12:00pm 28.8 27.6 16.2 46 7.8 ESE 17 26 9 14 1017.5 1017.5 0.0
24/11:30am 29.1 28.1 16.6 46 7.8 ESE 17 28 9 15 1017.8 1017.8 0.0
24/11:00am 28.3 27.2 16.4 48 7.4 ESE 17 24 9 13 1018.3 1018.2 0.0
24/10:30am 28.1 27.1 16.7 50 7.1 ESE 17 24 9 13 1018.5 1018.4 0.0
24/10:00am 27.5 27.2 17.3 53 6.4 ESE 15 28 8 15 1018.8 1018.7 0.0
24/09:30am 27.6 27.4 16.6 51 6.8 SSE 13 22 7 12 1018.9 1018.8 0.0
24/09:00am 27.4 26.6 16.0 49 7.0 SSE 15 26 8 14 1018.9 1018.8 0.0
24/08:30am 26.0 25.8 16.6 56 5.8 SSE 13 20 7 11 1018.8 1018.7 0.0
24/08:00am 24.8 24.3 17.0 62 4.8 SSW 15 22 8 12 1018.7 1018.6 0.0
24/07:30am 23.4 22.8 16.7 66 4.1 SSW 15 20 8 11 1018.6 1018.5 0.0
24/07:00am 22.4 21.4 16.6 69 3.5 SSW 17 22 9 12 1018.2 1018.1 0.0
24/06:30am 21.3 20.3 16.7 75 2.8 SSW 17 19 9 10 1018.1 1018.0 0.0
24/06:00am 20.2 20.1 16.9 81 2.0 SSW 13 17 7 9 1017.5 1017.5 0.0
24/05:30am 19.7 19.7 17.1 85 1.6 SSW 13 15 7 8 1017.2 1017.2 0.0
24/05:00am 19.5 19.5 17.2 86 1.4 SSW 13 15 7 8 1016.9 1016.9 0.0
24/04:30am 19.9 20.6 17.1 84 1.7 SSW 9 13 5 7 1016.8 1016.8 0.0
24/04:00am 20.1 20.5 17.3 84 1.7 SSW 11 15 6 8 1017.0 1017.0 0.0
24/03:30am 21.3 21.9 17.6 79 2.3 SSW 11 15 6 8 1017.1 1017.1 0.0
24/03:00am 21.1 21.5 17.3 79 2.3 SSW 11 15 6 8 1017.1 1017.1 0.0
24/02:30am 22.6 23.1 17.4 72 3.2 S 11 15 6 8 1017.1 1017.1 0.0
24/02:00am 22.8 23.7 17.6 72 3.2 S 9 13 5 7 1017.2 1017.2 0.0
24/01:30am 22.1 22.9 17.4 74 2.9 S 9 11 5 6 1017.5 1017.5 0.0
24/01:00am 22.3 22.8 17.4 74 3.0 SSW 11 13 6 7 1017.7 1017.7 0.0
24/12:30am 22.3 23.2 17.6 75 2.9 S 9 11 5 6 1018.0 1017.9 0.0
24/12:00am 23.3 24.2 17.5 70 3.6 SSE 9 15 5 8 1018.2 1018.1 0.0
 
Date/Time
EST
Temp
°C
App
Temp
°C
Dew
Point
°C
Rel
Hum
%
Delta-T
°C
Wind Press
QNH
hPa
Press
MSL
hPa
Rain since
9am
mm
Dir  Spd
km/h
Gust
km/h
Spd
kts
Gust
kts
23/11:30pm 23.5 24.0 17.4 68 3.8 SSE 11 20 6 11 1018.6 1018.5 0.0
23/11:00pm 24.2 24.2 17.2 65 4.3 SE 13 19 7 10 1018.6 1018.5 0.0
23/10:30pm 24.1 24.5 18.2 69 3.7 SE 13 19 7 10 1018.8 1018.7 0.0
23/10:00pm 24.7 24.8 18.4 68 4.0 SE 15 26 8 14 1018.9 1018.8 0.0
23/09:30pm 24.6 24.8 18.6 69 3.8 ESE 15 28 8 15 1018.9 1018.8 0.0
23/09:00pm 24.5 24.4 18.8 70 3.6 SE 17 32 9 17 1019.0 1018.9 0.0
23/08:30pm 24.7 25.1 18.9 70 3.7 SE 15 28 8 15 1018.9 1018.8 0.0

Other Formats:

Comma delimited format used in spreadsheet applications
http://www.bom.gov.au/fwo/IDQ60801/IDQ60801.94578.axf

JavaScript Object Notation format (JSON) in row-major order
http://www.bom.gov.au/fwo/IDQ60801/IDQ60801.94578.json